Latest Coastal Weather Observations for Karratha

IDW60701

Issued at 1:33 am WST Thursday 3 September 2026 (issued every 10 minutes, with the page automatically refreshed every 10 minutes)

About coastal observations | Map of coastal stations | Coastal observations for WA | Marine services | Other Formats
Station Details ID: 004083 Name: KARRATHA AERO Lat: -20.71 Lon: 116.77 Height: 5.3 m
Data from the previous 72 hours. | See also: Recent months at Karratha
Date/Time
WST
Wind Sea
Height
m
Swell Vis
km
Cloud Weather Temp
°C
Press
MSL
hPa
Rain since
9am
mm
Dir  Spd
kts
Gust
kts
Height
m
Period
s
Dir
03/01:30am WSW 10 13 - - - - 10 Clear - 22.8 1014.8 0.0
03/01:00am WSW 13 15 - - - - 10 - - 22.9 1015.0 0.0
03/12:30am WSW 12 16 - - - - 10 - - 22.8 1015.2 0.0
03/12:00am WSW 14 17 - - - - 10 - - 22.9 1015.5 0.0
 
Date/Time
WST
Wind Sea
Height
m
Swell Vis
km
Cloud Weather Temp
°C
Press
MSL
hPa
Rain since
9am
mm
Dir  Spd
kts
Gust
kts
Height
m
Period
s
Dir
02/11:30pm WSW 15 18 - - - - 10 - - 23.3 1015.7 0.0
02/11:00pm WSW 16 19 - - - - 10 - - 23.6 1015.7 0.0
02/10:30pm W 14 17 - - - - 10 - - 24.0 1015.9 0.0
02/10:00pm W 13 16 - - - - 10 - - 24.3 1015.9 0.0
02/09:30pm W 13 15 - - - - 10 - - 24.5 1016.0 0.0
02/09:00pm W 13 16 - - - - 10 - - 24.8 1015.9 0.0
02/08:30pm W 11 14 - - - - 10 - - 25.2 1015.7 0.0
02/08:00pm W 11 13 - - - - 10 - - 25.6 1015.6 0.0
02/07:30pm W 12 14 - - - - 10 - - 25.8 1015.3 0.0
02/07:00pm W 10 12 - - - - 10 - - 26.2 1015.1 0.0
02/06:30pm W 10 13 - - - - 10 - - 26.7 1015.0 0.0
02/06:00pm W 11 13 - - - - 10 - - 27.4 1014.9 0.0
02/05:30pm WNW 10 13 - - - - 10 - - 28.5 1014.6 0.0
02/05:00pm WNW 11 14 - - - - 10 - - 29.4 1014.4 0.0
02/04:30pm WNW 11 14 - - - - 10 - - 30.3 1014.1 0.0
02/04:00pm WNW 13 15 - - - - 10 - - 31.1 1014.0 0.0
02/03:30pm WNW 13 16 - - - - 10 - - 31.0 1013.9 0.0
02/03:00pm WNW 14 17 - - - - 10 - - 30.5 1014.0 0.0
02/02:30pm WNW 15 19 - - - - 10 - - 30.8 1014.3 0.0
02/02:00pm WNW 15 17 - - - - 10 - - 31.0 1014.6 0.0
02/01:30pm WNW 14 16 - - - - 10 - - 31.8 1015.0 0.0
02/01:00pm NW 11 14 - - - - 10 - - 32.6 1015.2 0.0
02/12:30pm NW 11 13 - - - - 10 - - 32.6 1015.5 0.0
02/12:00pm NW 9 11 - - - - 10 - - 32.4 1015.9 0.0
02/11:30am WNW 9 11 - - - - 10 - - 31.8 1016.2 0.0
02/11:00am WNW 8 11 - - - - 10 - - 31.3 1016.5 0.0
02/10:30am W 7 9 - - - - 10 - - 30.0 1016.9 0.0
02/10:00am W 7 8 - - - - 10 - - 28.4 1017.4 0.0
02/09:30am W 8 10 - - - - 10 - - 26.4 1017.5 0.0
02/09:00am W 11 12 - - - - 10 - - 25.1 1017.4 0.0
02/08:30am W 12 15 - - - - 10 - - 23.5 1017.4 0.0
02/08:00am WSW 10 11 - - - - 10 - - 22.8 1017.4 0.0
02/07:30am WSW 10 13 - - - - 10 - - 21.5 1017.1 0.0
02/07:00am WSW 9 10 - - - - 10 - - 20.8 1016.8 0.0
02/06:30am WSW 9 11 - - - - 10 - - 20.5 1016.6 0.0
02/06:00am WSW 10 12 - - - - 10 - - 20.7 1016.4 0.0
02/05:30am WSW 9 11 - - - - 10 - - 20.7 1016.3 0.0
02/05:00am WSW 10 12 - - - - 10 - - 21.0 1016.2 0.0
02/04:30am WSW 12 14 - - - - 10 - - 21.9 1016.1 0.0
02/04:00am WSW 11 14 - - - - 10 - - 21.9 1016.3 0.0
02/03:30am WSW 11 14 - - - - 10 - - 22.0 1016.3 0.0
02/03:00am WSW 11 13 - - - - 10 - - 22.0 1016.4 0.0
02/02:30am WSW 9 11 - - - - 10 - - 21.7 1016.5 0.0
02/02:00am WSW 8 11 - - - - 10 - - 21.9 1016.8 0.0
02/01:30am WSW 10 13 - - - - 10 - - 22.3 1016.9 0.0
02/01:00am WSW 11 14 - - - - 10 - - 22.7 1017.1 0.0
02/12:30am WSW 10 12 - - - - 10 - - 23.0 1017.4 0.0
02/12:00am WSW 10 11 - - - - 10 - - 23.2 1017.6 0.0
 
Date/Time
WST
Wind Sea
Height
m
Swell Vis
km
Cloud Weather Temp
°C
Press
MSL
hPa
Rain since
9am
mm
Dir  Spd
kts
Gust
kts
Height
m
Period
s
Dir
01/11:30pm WSW 10 12 - - - - 10 - - 23.3 1017.6 0.0
01/11:00pm WSW 12 14 - - - - 10 - - 23.6 1017.6 0.0
01/10:30pm WSW 13 17 - - - - 10 - - 24.0 1017.8 0.0
01/10:00pm WSW 15 18 - - - - 10 - - 24.6 1017.8 0.0
01/09:30pm WSW 14 17 - - - - 10 - - 24.9 1017.7 0.0
01/09:00pm WSW 13 16 - - - - 10 - - 25.2 1017.6 0.0
01/08:30pm W 12 15 - - - - 10 - - 25.6 1017.5 0.0
01/08:00pm W 11 13 - - - - 10 - - 25.7 1017.1 0.0
01/07:30pm W 11 13 - - - - 10 - - 26.4 1016.8 0.0
01/07:00pm W 12 14 - - - - 10 - - 26.6 1016.6 0.0
01/06:30pm W 13 15 - - - - 10 - - 27.0 1016.4 0.0
01/06:00pm W 12 15 - - - - 10 - - 27.6 1016.3 0.0
01/05:30pm W 13 16 - - - - 10 - - 29.0 1016.1 0.0
01/05:00pm W 13 15 - - - - 10 - - 30.0 1015.9 0.0
01/04:30pm W 12 14 - - - - 10 - - 30.9 1015.7 0.0
01/04:00pm WNW 11 14 - - - - 10 - - 31.7 1015.6 0.0
01/03:30pm WNW 11 15 - - - - 10 - - 32.2 1015.5 0.0
01/03:00pm WNW 11 14 - - - - 10 - - 32.7 1015.6 0.0
01/02:30pm WNW 11 14 - - - - 10 - - 32.6 1015.8 0.0
01/02:00pm WNW 11 15 - - - - 10 - - 32.9 1015.9 0.0
01/01:30pm WNW 10 13 - - - - 10 - - 33.7 1016.0 0.0
01/01:00pm NW 10 14 - - - - 10 - - 33.2 1016.3 0.0
01/12:30pm WNW 9 12 - - - - 10 - - 33.2 1016.6 0.0
01/12:00pm WNW 9 11 - - - - 10 - - 32.8 1017.0 0.0
01/11:30am WNW 9 11 - - - - 10 - - 32.7 1017.4 0.0
01/11:00am W 8 10 - - - - 10 - - 32.0 1017.7 0.0
01/10:30am W 8 9 - - - - 10 - - 30.6 1018.0 0.0
01/10:00am W 7 9 - - - - 10 - - 28.7 1018.3 0.0
01/09:30am W 7 8 - - - - 10 - - 27.3 1018.6 0.0
01/09:00am W 6 7 - - - - 10 - - 26.3 1018.8 0.0
01/08:30am WSW 6 7 - - - - 10 - - 24.8 1018.9 0.0
01/08:00am WSW 7 8 - - - - 10 - - 23.8 1018.9 0.0
01/07:30am W 6 7 - - - - 10 - - 22.9 1018.7 0.0
01/07:00am WSW 5 6 - - - - 10 - - 20.0 1018.4 0.0
01/06:30am WSW 4 4 - - - - 10 - - 18.0 1018.3 0.0
01/06:00am WSW 4 5 - - - - 10 - - 18.6 1018.0 0.0
01/05:30am WSW 6 6 - - - - 10 - - 19.5 1017.9 0.0
01/05:00am WSW 7 9 - - - - 10 - - 20.0 1017.7 0.0
01/04:30am SW 7 8 - - - - 10 - - 19.9 1017.7 0.0
01/04:00am SW 7 7 - - - - 10 - - 19.9 1017.7 0.0
01/03:30am SW 5 6 - - - - 10 - - 20.0 1017.8 0.0
01/03:00am SW 5 6 - - - - 10 - - 20.4 1017.9 0.0
01/02:30am WSW 8 10 - - - - 10 - - 21.5 1018.1 0.0
01/02:00am WSW 9 11 - - - - 10 - - 21.7 1018.3 0.0
01/01:30am WSW 9 11 - - - - 10 - - 21.8 1018.5 0.0
01/01:00am WSW 10 11 - - - - 10 - - 22.2 1018.7 0.0
01/12:30am WSW 9 11 - - - - 10 - - 22.4 1018.9 0.0
01/12:00am WSW 10 11 - - - - 10 - - 22.7 1019.2 0.0
 
Date/Time
WST
Wind Sea
Height
m
Swell Vis
km
Cloud Weather Temp
°C
Press
MSL
hPa
Rain since
9am
mm
Dir  Spd
kts
Gust
kts
Height
m
Period
s
Dir
31/11:30pm WSW 9 11 - - - - 10 - - 22.9 1019.4 0.0
31/11:00pm SW 11 14 - - - - 10 - - 23.5 1019.5 0.0
31/10:30pm WSW 14 17 - - - - 10 - - 24.0 1019.3 0.0
31/10:00pm WSW 12 15 - - - - 10 - - 24.5 1019.3 0.0
31/09:30pm WSW 11 13 - - - - 10 - - 24.8 1019.4 0.0
31/09:00pm WSW 12 14 - - - - 10 - - 25.3 1019.2 0.0
31/08:30pm WSW 13 15 - - - - 10 - - 25.8 1019.0 0.0
31/08:00pm WSW 12 15 - - - - 10 - - 25.9 1018.8 0.0
31/07:30pm WSW 12 16 - - - - 10 - - 26.1 1018.5 0.0
31/07:00pm W 12 15 - - - - 10 - - 26.3 1018.2 0.0
31/06:30pm W 13 15 - - - - 10 - - 26.7 1017.9 0.0
31/06:00pm W 14 17 - - - - 10 - - 27.2 1017.5 0.0
31/05:30pm W 15 20 - - - - 10 - - 28.2 1017.2 0.0
31/05:00pm W 14 17 - - - - 10 - - 29.0 1017.0 0.0
31/04:30pm W 15 18 - - - - 10 - - 29.6 1016.9 0.0
31/04:00pm W 16 19 - - - - 10 - - 30.8 1016.8 0.0
31/03:30pm W 16 19 - - - - 10 - - 30.9 1016.9 0.0
31/03:00pm W 15 18 - - - - 10 - - 31.8 1016.9 0.0
31/02:30pm W 14 17 - - - - 10 - - 32.1 1017.0 0.0
31/02:00pm W 15 18 - - - - 10 - - 32.0 1017.2 0.0
31/01:30pm W 15 18 - - - - 10 - - 32.3 1017.3 0.0
31/01:00pm W 13 17 - - - - 10 - - 32.2 1017.6 0.0
31/12:30pm W 12 15 - - - - 10 - - 32.8 1018.0 0.0
31/12:00pm WNW 11 13 - - - - 10 - - 32.2 1018.2 0.0
31/11:30am W 11 13 - - - - 10 - - 31.8 1018.6 0.0
31/11:00am W 10 13 - - - - 10 - - 31.4 1018.8 0.0
31/10:30am W 10 14 - - - - 10 - - 30.9 1019.0 0.0
31/10:00am WSW 10 13 - - - - 10 - - 30.1 1019.1 0.0
31/09:30am WSW 6 8 - - - - 10 - - 29.0 1019.1 0.0
31/09:00am W 6 7 - - - - 10 - - 27.0 1019.1 0.0
31/08:30am WSW 5 7 - - - - 10 - - 25.4 1018.9 0.0
31/08:00am WSW 8 9 - - - - 10 - - 23.8 1018.6 0.0
31/07:30am WSW 8 10 - - - - 10 - - 23.1 1018.3 0.0
31/07:00am WSW 7 10 - - - - 10 - - 21.5 1018.2 0.0
31/06:30am WSW 6 7 - - - - 10 - - 19.3 1018.1 0.0
31/06:00am WSW 5 6 - - - - 10 - - 19.3 1017.8 0.0
31/05:30am WSW 6 7 - - - - 10 - - 19.7 1017.6 0.0
31/05:00am WSW 7 8 - - - - 10 - - 20.2 1017.5 0.0
31/04:30am WSW 6 6 - - - - 10 - - 20.1 1017.3 0.0
31/04:00am WSW 6 7 - - - - 10 - - 20.4 1017.4 0.0
31/03:30am WSW 7 8 - - - - 10 - - 20.2 1017.6 0.0
31/03:00am SW 7 7 - - - - 10 - - 19.6 1017.7 0.0
31/02:30am SW 6 8 - - - - 10 - - 20.8 1017.7 0.0
31/02:00am SW 7 8 - - - - 10 - - 21.9 1018.0 0.0

Other formats

Comma delimited format used in spreadsheet applications
http://www.bom.gov.au/fwo/IDW60701/IDW60701.95307.axf

JavaScript Object Notation format (JSON) in row-major order
http://www.bom.gov.au/fwo/IDW60701/IDW60701.95307.json

Data quality

Most of these data are generated automatically and are frequently updated. Quality checks on data are not normally performed. It is possible for incorrect values to appear. Refer to information at About Latest Weather Observations and please check the disclaimer before using these data.